Time,TemperatureF,DewpointF,PressureIn,WindDirection,WindDirectionDegrees,WindSpeedMPH,WindSpeedGustMPH,Humidity,HourlyPrecipIn,Conditions,Clouds,dailyrainin,SoftwareType,DateUTC
2013-03-23 00:02:00,43.9,32.9,30.11,NNE,30,0.0,0.0,65,0.00,CLR,,0.00,WeatherDisplay:10.37,2013-03-23 05:02:00,
2013-03-23 00:07:00,43.9,33.3,30.11,NNE,30,0.0,0.0,66,0.00,CLR,,0.00,WeatherDisplay:10.37,2013-03-23 05:07:00,
2013-03-23 00:12:00,43.9,33.6,30.11,NNE,30,0.0,0.0,67,0.00,CLR,,0.00,WeatherDisplay:10.37,2013-03-23 05:12:00,
2013-03-23 00:17:00,43.9,33.3,30.10,NNE,30,0.0,0.0,66,0.00,CLR,,0.00,WeatherDisplay:10.37,2013-03-23 05:17:00,
2013-03-23 00:22:00,43.9,33.6,30.10,NNE,30,0.0,0.0,67,0.00,CLR,,0.00,WeatherDisplay:10.37,2013-03-23 05:22:00,
2013-03-23 00:27:00,43.9,33.3,30.10,NNE,30,1.1,0.0,66,0.00,CLR,,0.00,WeatherDisplay:10.37,2013-03-23 05:27:00,
2013-03-23 00:32:00,44.1,33.5,30.10,NNE,30,0.0,0.0,66,0.00,CLR,,0.00,WeatherDisplay:10.37,2013-03-23 05:32:00,
2013-03-23 00:37:00,44.1,33.5,30.10,NNE,30,0.0,0.0,66,0.00,CLR,,0.00,WeatherDisplay:10.37,2013-03-23 05:37:00,
2013-03-23 00:42:00,44.1,33.5,30.11,NNE,30,0.0,0.0,66,0.00,CLR,,0.00,WeatherDisplay:10.37,2013-03-23 05:42:00,
2013-03-23 00:47:00,43.9,32.9,30.10,NNE,30,0.0,0.0,65,0.00,CLR,,0.00,WeatherDisplay:10.37,2013-03-23 05:47:00,
2013-03-23 00:52:00,43.9,33.3,30.10,NNE,30,0.0,0.0,66,0.00,CLR,,0.00,WeatherDisplay:10.37,2013-03-23 05:52:00,
2013-03-23 00:57:00,43.9,32.9,30.10,NNE,30,0.0,0.0,65,0.00,CLR,,0.00,WeatherDisplay:10.37,2013-03-23 05:57:00,
2013-03-23 01:02:00,44.1,32.7,30.10,NNE,30,0.0,0.0,64,0.00,CLR,,0.00,WeatherDisplay:10.37,2013-03-23 06:02:00,
2013-03-23 01:07:00,44.1,33.8,30.10,NNE,30,0.0,0.0,67,0.00,CLR,,0.00,WeatherDisplay:10.37,2013-03-23 06:07:00,
2013-03-23 01:12:00,43.9,34.0,30.09,NNE,30,0.0,0.0,68,0.00,CLR,,0.00,WeatherDisplay:10.37,2013-03-23 06:12:00,
2013-03-23 01:17:00,43.9,34.4,30.10,NNE,30,0.0,0.0,69,0.00,CLR,,0.00,WeatherDisplay:10.37,2013-03-23 06:17:00,
2013-03-23 01:22:00,43.8,33.9,30.10,NNE,30,0.0,0.0,68,0.00,CLR,,0.00,WeatherDisplay:10.37,2013-03-23 06:22:00,
2013-03-23 01:28:00,43.8,33.9,30.09,NNE,30,0.0,0.0,68,0.00,CLR,,0.00,WeatherDisplay:10.37,2013-03-23 06:28:00,
2013-03-23 01:33:00,43.8,33.6,30.08,NNE,30,0.0,0.0,67,0.00,CLR,,0.00,WeatherDisplay:10.37,2013-03-23 06:33:00,
2013-03-23 01:38:00,43.8,33.6,30.08,NNE,30,0.0,0.0,67,0.00,CLR,,0.00,WeatherDisplay:10.37,2013-03-23 06:38:00,
2013-03-23 01:43:00,43.8,33.9,30.08,NNE,30,0.0,0.0,68,0.00,CLR,,0.00,WeatherDisplay:10.37,2013-03-23 06:43:00,
2013-03-23 01:48:00,43.8,33.9,30.09,NNE,30,0.0,0.0,68,0.00,CLR,,0.00,WeatherDisplay:10.37,2013-03-23 06:48:00,
2013-03-23 01:53:00,43.8,34.3,30.08,NNE,30,0.0,0.0,69,0.00,CLR,,0.00,WeatherDisplay:10.37,2013-03-23 06:53:00,
2013-03-23 01:58:00,43.8,33.9,30.08,NNE,30,0.0,0.0,68,0.00,CLR,,0.00,WeatherDisplay:10.37,2013-03-23 06:58:00,
2013-03-23 02:03:00,43.8,33.9,30.08,NNE,30,0.0,0.0,68,0.00,CLR,,0.00,WeatherDisplay:10.37,2013-03-23 07:03:00,
2013-03-23 02:08:00,43.8,34.3,30.08,NNE,30,0.0,0.0,69,0.00,CLR,,0.00,WeatherDisplay:10.37,2013-03-23 07:08:00,
2013-03-23 02:13:00,43.8,34.3,30.08,NNE,30,0.0,0.0,69,0.00,CLR,,0.00,WeatherDisplay:10.37,2013-03-23 07:13:00,
2013-03-23 02:18:00,43.8,34.3,30.08,NNE,30,0.0,0.0,69,0.00,CLR,,0.00,WeatherDisplay:10.37,2013-03-23 07:18:00,
2013-03-23 02:23:00,43.9,34.0,30.08,NNE,30,0.0,0.0,68,0.00,CLR,,0.00,WeatherDisplay:10.37,2013-03-23 07:23:00,
2013-03-23 02:28:00,43.9,34.0,30.07,NNE,30,0.0,0.0,68,0.00,CLR,,0.00,WeatherDisplay:10.37,2013-03-23 07:28:00,
2013-03-23 02:33:00,43.9,34.7,30.07,NNE,30,0.0,0.0,70,0.00,CLR,,0.00,WeatherDisplay:10.37,2013-03-23 07:33:00,
2013-03-23 02:38:00,43.9,35.1,30.07,NNE,30,0.0,0.0,71,0.00,CLR,,0.00,WeatherDisplay:10.37,2013-03-23 07:38:00,
2013-03-23 02:43:00,43.9,35.1,30.07,NNE,30,0.0,0.0,71,0.00,CLR,,0.00,WeatherDisplay:10.37,2013-03-23 07:43:00,
2013-03-23 02:48:00,43.9,35.8,30.07,NNE,30,0.0,0.0,73,0.00,CLR,,0.00,WeatherDisplay:10.37,2013-03-23 07:48:00,
2013-03-23 02:53:00,43.8,36.0,30.07,NNE,30,0.0,0.0,74,0.00,CLR,,0.00,WeatherDisplay:10.37,2013-03-23 07:53:00,
2013-03-23 02:58:00,43.5,36.8,30.08,NNE,30,0.0,0.0,77,0.00,CLR,,0.00,WeatherDisplay:10.37,2013-03-23 07:58:00,
2013-03-23 03:03:00,43.3,37.5,30.08,NNE,30,0.0,0.0,80,0.01,RA,,0.01,WeatherDisplay:10.37,2013-03-23 08:03:00,
2013-03-23 03:08:00,43.1,38.3,30.08,NNE,30,0.0,0.0,83,0.01,RA,,0.02,WeatherDisplay:10.37,2013-03-23 08:08:00,
2013-03-23 03:13:00,42.8,38.6,30.06,NNE,30,0.0,0.0,85,0.02,RA,,0.02,WeatherDisplay:10.37,2013-03-23 08:13:00,
2013-03-23 03:18:00,42.6,38.7,30.05,NNE,30,0.0,0.0,86,0.04,RA,,0.04,WeatherDisplay:10.37,2013-03-23 08:18:00,
2013-03-23 03:23:00,42.3,38.7,30.06,NNE,30,0.0,0.0,87,0.04,RA,,0.04,WeatherDisplay:10.37,2013-03-23 08:23:00,
2013-03-23 03:28:00,42.2,38.9,30.06,NNE,30,0.0,0.0,88,0.05,RA,,0.05,WeatherDisplay:10.37,2013-03-23 08:28:00,
2013-03-23 03:33:00,41.9,38.6,30.07,NNE,30,0.0,0.0,88,0.06,RA,,0.06,WeatherDisplay:10.37,2013-03-23 08:33:00,
2013-03-23 03:38:00,41.8,38.5,30.07,NNE,30,0.0,0.0,88,0.06,RA,,0.06,WeatherDisplay:10.37,2013-03-23 08:38:00,
2013-03-23 03:43:00,41.6,38.3,30.07,NNE,30,0.0,0.0,88,0.06,CLR,,0.06,WeatherDisplay:10.37,2013-03-23 08:43:00,
2013-03-23 03:48:00,41.5,38.5,30.06,NNE,30,0.0,0.0,89,0.06,CLR,,0.06,WeatherDisplay:10.37,2013-03-23 08:48:00,
2013-03-23 03:53:00,41.5,38.5,30.06,NNE,30,0.0,0.0,89,0.06,CLR,,0.06,WeatherDisplay:10.37,2013-03-23 08:53:00,
2013-03-23 03:58:00,41.5,38.5,30.06,NNE,30,0.0,0.0,89,0.06,CLR,,0.06,WeatherDisplay:10.37,2013-03-23 08:58:00,
2013-03-23 04:03:00,41.5,38.8,30.06,NNE,30,1.1,1.1,90,0.05,CLR,,0.06,WeatherDisplay:10.37,2013-03-23 09:03:00,
2013-03-23 04:08:00,41.6,38.9,30.06,NNE,30,0.0,0.0,90,0.05,CLR,,0.06,WeatherDisplay:10.37,2013-03-23 09:08:00,
2013-03-23 04:13:00,41.6,38.9,30.07,NNE,30,1.1,0.0,90,0.04,CLR,,0.06,WeatherDisplay:10.37,2013-03-23 09:13:00,
2013-03-23 04:18:00,41.6,39.2,30.06,NNE,30,0.0,0.0,91,0.02,CLR,,0.06,WeatherDisplay:10.37,2013-03-23 09:18:00,
2013-03-23 04:23:00,41.6,38.9,30.07,NNE,30,0.0,0.0,90,0.02,CLR,,0.06,WeatherDisplay:10.37,2013-03-23 09:23:00,
2013-03-23 04:28:00,41.5,39.1,30.06,NNE,30,0.0,0.0,91,0.01,CLR,,0.06,WeatherDisplay:10.37,2013-03-23 09:28:00,
2013-03-23 04:33:00,41.5,39.1,30.05,NNE,30,0.0,0.0,91,0.00,CLR,,0.06,WeatherDisplay:10.37,2013-03-23 09:33:00,
2013-03-23 04:38:00,41.6,39.2,30.06,NNE,30,0.0,0.0,91,0.00,CLR,,0.06,WeatherDisplay:10.37,2013-03-23 09:38:00,
2013-03-23 04:43:00,41.6,39.2,30.06,NNE,30,0.0,0.0,91,0.00,CLR,,0.06,WeatherDisplay:10.37,2013-03-23 09:43:00,
2013-03-23 04:48:00,41.6,39.2,30.06,NNE,30,0.0,0.0,91,0.00,CLR,,0.06,WeatherDisplay:10.37,2013-03-23 09:48:00,
2013-03-23 04:53:00,41.6,39.2,30.06,NNE,30,0.0,0.0,91,0.00,CLR,,0.06,WeatherDisplay:10.37,2013-03-23 09:53:00,
2013-03-23 04:58:00,41.6,39.2,30.06,NNE,30,0.0,0.0,91,0.00,CLR,,0.06,WeatherDisplay:10.37,2013-03-23 09:58:00,
2013-03-23 05:03:00,41.6,39.2,30.06,NNE,30,0.0,0.0,91,0.00,CLR,,0.06,WeatherDisplay:10.37,2013-03-23 10:03:00,
2013-03-23 05:08:00,41.6,39.2,30.06,NNE,30,0.0,0.0,91,0.00,CLR,,0.06,WeatherDisplay:10.37,2013-03-23 10:08:00,
2013-03-23 05:13:00,41.6,39.2,30.07,NNE,30,0.0,0.0,91,0.00,CLR,,0.06,WeatherDisplay:10.37,2013-03-23 10:13:00,
2013-03-23 05:18:00,41.6,39.2,30.07,NNE,30,0.0,0.0,91,0.00,CLR,,0.06,WeatherDisplay:10.37,2013-03-23 10:18:00,
2013-03-23 05:23:00,41.6,39.2,30.07,NNE,30,0.0,0.0,91,0.00,CLR,,0.06,WeatherDisplay:10.37,2013-03-23 10:23:00,
2013-03-23 05:28:00,41.8,39.4,30.08,NNE,30,0.0,0.0,91,0.00,CLR,,0.06,WeatherDisplay:10.37,2013-03-23 10:28:00,
2013-03-23 05:33:00,41.6,39.2,30.08,NNE,30,0.0,0.0,91,0.01,RA,,0.07,WeatherDisplay:10.37,2013-03-23 10:33:00,
2013-03-23 05:38:00,41.6,39.2,30.08,NNE,30,0.0,0.0,91,0.02,RA,,0.08,WeatherDisplay:10.37,2013-03-23 10:38:00,
2013-03-23 05:43:00,41.6,39.4,30.09,NNE,30,0.0,0.0,92,0.03,RA,,0.10,WeatherDisplay:10.37,2013-03-23 10:43:00,
2013-03-23 05:48:00,41.6,39.4,30.09,NNE,30,0.0,0.0,92,0.04,RA,,0.11,WeatherDisplay:10.37,2013-03-23 10:48:00,
2013-03-23 05:53:00,41.6,39.4,30.10,NNE,30,0.0,0.0,92,0.06,RA,,0.12,WeatherDisplay:10.37,2013-03-23 10:53:00,
2013-03-23 05:58:00,41.6,39.4,30.10,NNE,30,0.0,0.0,92,0.07,RA,,0.13,WeatherDisplay:10.37,2013-03-23 10:58:00,
2013-03-23 06:03:00,41.6,39.4,30.10,NNE,30,0.0,0.0,92,0.08,RA,,0.14,WeatherDisplay:10.37,2013-03-23 11:03:00,
2013-03-23 06:08:00,41.6,39.4,30.08,NNE,30,0.0,0.0,92,0.09,RA,,0.15,WeatherDisplay:10.37,2013-03-23 11:08:00,
2013-03-23 06:13:00,41.5,39.3,30.07,NNE,30,0.0,0.0,92,0.10,RA,,0.16,WeatherDisplay:10.37,2013-03-23 11:13:00,
2013-03-23 06:18:00,41.5,39.3,30.06,NNE,30,0.0,0.0,92,0.10,RA,,0.16,WeatherDisplay:10.37,2013-03-23 11:18:00,
2013-03-23 06:23:00,41.3,39.4,30.07,NNE,30,1.1,1.1,93,0.11,RA,,0.17,WeatherDisplay:10.37,2013-03-23 11:23:00,
2013-03-23 06:28:00,41.3,39.4,30.07,NNE,30,0.0,0.0,93,0.11,RA,,0.17,WeatherDisplay:10.37,2013-03-23 11:28:00,
2013-03-23 06:33:00,41.3,39.4,30.06,NNE,30,0.0,0.0,93,0.10,CLR,,0.17,WeatherDisplay:10.37,2013-03-23 11:33:00,
2013-03-23 06:38:00,41.2,39.3,30.07,NNE,30,0.0,0.0,93,0.09,CLR,,0.17,WeatherDisplay:10.37,2013-03-23 11:38:00,
2013-03-23 06:43:00,41.2,39.3,30.08,NNE,30,0.0,0.0,93,0.08,CLR,,0.17,WeatherDisplay:10.37,2013-03-23 11:43:00,
2013-03-23 06:48:00,41.2,39.3,30.07,NNE,30,1.0,1.0,93,0.07,CLR,,0.17,WeatherDisplay:10.37,2013-03-23 11:48:00,
2013-03-23 06:53:00,41.2,39.3,30.08,NNE,30,0.0,0.0,93,0.05,CLR,,0.17,WeatherDisplay:10.37,2013-03-23 11:53:00,
2013-03-23 06:58:00,41.2,39.3,30.08,NNE,30,0.0,0.0,93,0.04,CLR,,0.17,WeatherDisplay:10.37,2013-03-23 11:58:00,
2013-03-23 07:03:00,41.3,39.4,30.08,NNE,30,0.0,0.0,93,0.03,CLR,,0.17,WeatherDisplay:10.37,2013-03-23 12:03:00,
2013-03-23 07:08:00,41.5,39.6,30.08,NNE,30,0.0,0.0,93,0.02,CLR,,0.17,WeatherDisplay:10.37,2013-03-23 12:08:00,
2013-03-23 07:14:00,41.6,40.0,30.09,NNE,30,0.0,0.0,94,0.01,CLR,,0.17,WeatherDisplay:10.37,2013-03-23 12:14:00,
2013-03-23 07:19:00,41.6,40.0,30.09,NNE,30,0.0,0.0,94,0.01,CLR,,0.17,WeatherDisplay:10.37,2013-03-23 12:19:00,
2013-03-23 07:24:00,41.6,40.0,30.09,NNE,30,0.0,0.0,94,0.00,CLR,,0.17,WeatherDisplay:10.37,2013-03-23 12:24:00,
2013-03-23 07:29:00,41.8,40.2,30.09,NNE,30,0.0,0.0,94,0.00,CLR,,0.17,WeatherDisplay:10.37,2013-03-23 12:29:00,
2013-03-23 07:34:00,41.9,40.3,30.10,NNE,30,0.0,0.0,94,0.00,CLR,,0.17,WeatherDisplay:10.37,2013-03-23 12:34:00,
2013-03-23 07:39:00,42.1,40.5,30.10,NNE,30,0.0,0.0,94,0.00,CLR,,0.17,WeatherDisplay:10.37,2013-03-23 12:39:00,
2013-03-23 07:44:00,42.1,40.5,30.10,NNE,30,0.0,0.0,94,0.00,CLR,,0.17,WeatherDisplay:10.37,2013-03-23 12:44:00,
2013-03-23 07:49:00,42.1,40.5,30.10,NNE,30,0.0,0.0,94,0.00,CLR,,0.17,WeatherDisplay:10.37,2013-03-23 12:49:00,
2013-03-23 07:54:00,41.9,40.3,30.09,NNE,30,0.0,0.0,94,0.00,CLR,,0.17,WeatherDisplay:10.37,2013-03-23 12:54:00,
2013-03-23 07:59:00,41.9,40.3,30.09,NNE,30,0.0,0.0,94,0.00,CLR,,0.17,WeatherDisplay:10.37,2013-03-23 12:59:00,
2013-03-23 08:04:00,41.8,40.2,30.10,NNE,30,1.1,1.1,94,0.00,CLR,,0.17,WeatherDisplay:10.37,2013-03-23 13:04:00,
2013-03-23 08:09:00,41.8,40.2,30.09,NNE,30,0.0,0.0,94,0.00,CLR,,0.17,WeatherDisplay:10.37,2013-03-23 13:09:00,
2013-03-23 08:14:00,41.8,40.2,30.09,NNE,30,1.1,1.1,94,0.00,CLR,,0.17,WeatherDisplay:10.37,2013-03-23 13:14:00,
2013-03-23 08:19:00,41.8,40.2,30.09,NNE,30,0.0,0.0,94,0.00,CLR,,0.17,WeatherDisplay:10.37,2013-03-23 13:19:00,
2013-03-23 08:24:00,41.9,40.3,30.09,NNE,30,0.0,0.0,94,0.00,CLR,,0.17,WeatherDisplay:10.37,2013-03-23 13:24:00,
2013-03-23 08:29:00,41.9,40.3,30.08,NNE,30,0.0,0.0,94,0.00,CLR,,0.17,WeatherDisplay:10.37,2013-03-23 13:29:00,
2013-03-23 08:34:00,42.1,40.5,30.08,NNE,30,1.1,0.0,94,0.00,CLR,,0.17,WeatherDisplay:10.37,2013-03-23 13:34:00,
2013-03-23 08:39:00,42.3,40.7,30.08,NNE,30,0.0,0.0,94,0.00,CLR,,0.17,WeatherDisplay:10.37,2013-03-23 13:39:00,
2013-03-23 08:44:00,42.5,40.9,30.08,NNE,30,0.0,0.0,94,0.00,CLR,,0.17,WeatherDisplay:10.37,2013-03-23 13:44:00,
2013-03-23 08:49:00,42.6,41.0,30.08,NNE,30,0.0,0.0,94,0.00,CLR,,0.17,WeatherDisplay:10.37,2013-03-23 13:49:00,
2013-03-23 08:54:00,42.8,41.2,30.08,NNE,30,0.0,0.0,94,0.00,CLR,,0.17,WeatherDisplay:10.37,2013-03-23 13:54:00,
2013-03-23 08:59:00,42.8,41.2,30.08,NNE,30,0.0,0.0,94,0.00,CLR,,0.17,WeatherDisplay:10.37,2013-03-23 13:59:00,
2013-03-23 09:04:00,43.1,41.5,30.08,NNE,30,0.0,0.0,94,0.00,CLR,,0.17,WeatherDisplay:10.37,2013-03-23 14:04:00,
2013-03-23 09:09:00,43.3,41.7,30.09,NNE,30,1.1,0.0,94,0.00,CLR,,0.17,WeatherDisplay:10.37,2013-03-23 14:09:00,
2013-03-23 09:14:00,43.5,41.6,30.09,NNE,30,3.5,3.5,93,0.00,CLR,,0.17,WeatherDisplay:10.37,2013-03-23 14:14:00,
2013-03-23 09:19:00,43.6,41.7,30.09,NNE,30,0.0,0.0,93,0.00,CLR,,0.17,WeatherDisplay:10.37,2013-03-23 14:19:00,
2013-03-23 09:24:00,43.8,41.9,30.09,NNE,30,0.0,0.0,93,0.00,CLR,,0.17,WeatherDisplay:10.37,2013-03-23 14:24:00,
2013-03-23 09:29:00,44.1,42.2,30.08,NNE,30,0.0,0.0,93,0.00,CLR,,0.17,WeatherDisplay:10.37,2013-03-23 14:29:00,
2013-03-23 09:34:00,44.3,42.4,30.08,NNE,30,0.0,0.0,93,0.00,CLR,,0.17,WeatherDisplay:10.37,2013-03-23 14:34:00,
2013-03-23 09:39:00,44.5,42.3,30.08,NNE,30,0.0,0.0,92,0.00,CLR,,0.17,WeatherDisplay:10.37,2013-03-23 14:39:00,
2013-03-23 09:44:00,44.6,42.4,30.08,NNE,30,0.0,0.0,92,0.00,CLR,,0.17,WeatherDisplay:10.37,2013-03-23 14:44:00,
2013-03-23 09:49:00,44.8,42.6,30.09,NNE,30,1.1,0.0,92,0.00,CLR,,0.17,WeatherDisplay:10.37,2013-03-23 14:49:00,
2013-03-23 09:54:00,44.8,42.3,30.08,NNE,30,1.0,3.0,91,0.00,CLR,,0.17,WeatherDisplay:10.37,2013-03-23 14:54:00,
2013-03-23 09:59:00,44.9,42.1,30.08,NNE,30,0.0,2.0,90,0.00,CLR,,0.17,WeatherDisplay:10.37,2013-03-23 14:59:00,
2013-03-23 10:04:00,45.1,42.1,30.08,NNE,30,0.0,0.0,89,0.00,CLR,,0.17,WeatherDisplay:10.37,2013-03-23 15:04:00,
2013-03-23 10:09:00,45.2,42.2,30.09,NNE,30,0.0,0.0,89,0.00,CLR,,0.17,WeatherDisplay:10.37,2013-03-23 15:09:00,
2013-03-23 10:14:00,45.4,42.3,30.09,NE,36,2.0,2.0,89,0.00,CLR,,0.17,WeatherDisplay:10.37,2013-03-23 15:14:00,
2013-03-23 10:19:00,45.4,42.1,30.09,NE,36,2.3,2.3,88,0.00,CLR,,0.17,WeatherDisplay:10.37,2013-03-23 15:19:00,
2013-03-23 10:24:00,45.7,42.3,30.09,NE,36,3.5,3.5,88,0.00,CLR,,0.17,WeatherDisplay:10.37,2013-03-23 15:24:00,
2013-03-23 10:29:00,45.7,42.3,30.09,NE,36,2.3,2.3,88,0.00,CLR,,0.17,WeatherDisplay:10.37,2013-03-23 15:29:00,
2013-03-23 10:34:00,45.8,42.4,30.09,NE,36,0.0,0.0,88,0.00,CLR,,0.17,WeatherDisplay:10.37,2013-03-23 15:34:00,
2013-03-23 10:39:00,45.5,41.9,30.09,NE,38,3.5,3.5,87,0.00,CLR,,0.17,WeatherDisplay:10.37,2013-03-23 15:39:00,
2013-03-23 10:44:00,45.7,42.3,30.09,NE,40,2.3,2.3,88,0.00,CLR,,0.17,WeatherDisplay:10.37,2013-03-23 15:44:00,
2013-03-23 10:50:00,45.5,41.9,30.09,NNE,31,2.0,2.0,87,0.00,CLR,,0.17,WeatherDisplay:10.37,2013-03-23 15:50:00,
2013-03-23 10:55:00,45.8,42.4,30.09,NNE,27,1.1,0.0,88,0.00,CLR,,0.17,WeatherDisplay:10.37,2013-03-23 15:55:00,
2013-03-23 11:00:00,46.0,42.6,30.09,NE,35,3.5,3.5,88,0.00,CLR,,0.17,WeatherDisplay:10.37,2013-03-23 16:00:00,
2013-03-23 11:05:00,46.0,42.3,30.09,NNE,32,4.6,4.6,87,0.00,CLR,,0.17,WeatherDisplay:10.37,2013-03-23 16:05:00,
2013-03-23 11:10:00,45.8,42.2,30.09,NNE,33,0.0,5.0,87,0.00,CLR,,0.17,WeatherDisplay:10.37,2013-03-23 16:10:00,
2013-03-23 11:15:00,45.8,42.4,30.09,NE,40,3.5,3.5,88,0.00,CLR,,0.17,WeatherDisplay:10.37,2013-03-23 16:15:00,
2013-03-23 11:20:00,45.8,42.4,30.08,NNE,13,0.0,6.0,88,0.00,CLR,,0.17,WeatherDisplay:10.37,2013-03-23 16:20:00,
2013-03-23 11:25:00,45.8,42.4,30.08,North,355,2.3,2.3,88,0.00,CLR,,0.17,WeatherDisplay:10.37,2013-03-23 16:25:00,
2013-03-23 11:30:00,46.0,42.9,30.08,North,10,2.0,2.0,89,0.00,CLR,,0.17,WeatherDisplay:10.37,2013-03-23 16:30:00,
2013-03-23 11:35:00,46.2,43.1,30.08,NE,37,1.1,0.0,89,0.00,CLR,,0.17,WeatherDisplay:10.37,2013-03-23 16:35:00,
2013-03-23 11:40:00,46.4,43.3,30.08,NNE,15,3.5,3.5,89,0.00,CLR,,0.17,WeatherDisplay:10.37,2013-03-23 16:40:00,
2013-03-23 11:45:00,46.5,43.4,30.08,NNE,22,0.0,0.0,89,0.00,CLR,,0.17,WeatherDisplay:10.37,2013-03-23 16:45:00,
2013-03-23 11:50:00,46.7,43.6,30.08,NNE,26,0.0,0.0,89,0.00,CLR,,0.17,WeatherDisplay:10.37,2013-03-23 16:50:00,
2013-03-23 11:55:00,46.7,43.6,30.08,NNE,26,2.3,2.3,89,0.00,CLR,,0.17,WeatherDisplay:10.37,2013-03-23 16:55:00,
2013-03-23 12:00:00,46.5,43.4,30.08,NE,49,3.5,3.5,89,0.00,CLR,,0.17,WeatherDisplay:10.37,2013-03-23 17:00:00,
2013-03-23 12:05:00,46.5,43.4,30.07,NNE,13,1.1,1.1,89,0.00,CLR,,0.17,WeatherDisplay:10.37,2013-03-23 17:05:00,
2013-03-23 12:10:00,46.7,43.9,30.07,NNE,33,3.5,3.5,90,0.00,CLR,,0.17,WeatherDisplay:10.37,2013-03-23 17:10:00,
2013-03-23 12:15:00,46.7,43.9,30.07,NE,34,3.5,3.5,90,0.00,CLR,,0.17,WeatherDisplay:10.37,2013-03-23 17:15:00,
2013-03-23 12:20:00,47.0,44.5,30.07,North,11,1.1,0.0,91,0.00,CLR,,0.17,WeatherDisplay:10.37,2013-03-23 17:20:00,
2013-03-23 12:25:00,47.3,44.5,30.07,NNE,12,3.5,3.5,90,0.00,CLR,,0.17,WeatherDisplay:10.37,2013-03-23 17:25:00,
2013-03-23 12:30:00,47.4,44.6,30.06,NNE,12,3.5,3.5,90,0.00,CLR,,0.17,WeatherDisplay:10.37,2013-03-23 17:30:00,
2013-03-23 12:35:00,47.6,44.5,30.06,NNE,12,2.3,2.3,89,0.00,CLR,,0.17,WeatherDisplay:10.37,2013-03-23 17:35:00,
2013-03-23 12:40:00,47.4,44.3,30.06,NNE,20,2.0,2.0,89,0.00,CLR,,0.17,WeatherDisplay:10.37,2013-03-23 17:40:00,
2013-03-23 12:45:00,47.6,44.2,30.06,NNE,21,2.3,2.3,88,0.00,CLR,,0.17,WeatherDisplay:10.37,2013-03-23 17:45:00,
2013-03-23 12:50:00,47.6,44.2,30.05,NNE,21,2.3,2.3,88,0.00,CLR,,0.17,WeatherDisplay:10.37,2013-03-23 17:50:00,
2013-03-23 12:55:00,48.0,44.6,30.05,NNE,21,0.0,0.0,88,0.00,CLR,,0.17,WeatherDisplay:10.37,2013-03-23 17:55:00,
2013-03-23 13:00:00,48.5,45.1,30.05,NNE,21,2.3,2.3,88,0.00,CLR,,0.17,WeatherDisplay:10.37,2013-03-23 18:00:00,
2013-03-23 13:05:00,48.6,44.6,30.05,NNE,21,1.0,0.0,86,0.00,CLR,,0.17,WeatherDisplay:10.37,2013-03-23 18:05:00,
2013-03-23 13:10:00,48.6,44.3,30.04,NNE,30,4.6,4.6,85,0.00,CLR,,0.17,WeatherDisplay:10.37,2013-03-23 18:10:00,
2013-03-23 13:15:00,48.8,44.5,30.05,East,84,1.0,0.0,85,0.00,CLR,,0.17,WeatherDisplay:10.37,2013-03-23 18:15:00,
2013-03-23 13:20:00,48.9,44.3,30.04,ENE,61,1.1,1.1,84,0.00,CLR,,0.17,WeatherDisplay:10.37,2013-03-23 18:20:00,
2013-03-23 13:25:00,49.1,44.8,30.03,NNW,346,2.3,2.3,85,0.00,CLR,,0.17,WeatherDisplay:10.37,2013-03-23 18:25:00,
2013-03-23 13:30:00,49.2,44.3,30.03,North,9,3.5,3.5,83,0.00,CLR,,0.17,WeatherDisplay:10.37,2013-03-23 18:30:00,
2013-03-23 13:35:00,49.4,44.5,30.03,North,11,3.5,3.5,83,0.00,CLR,,0.17,WeatherDisplay:10.37,2013-03-23 18:35:00,
2013-03-23 13:40:00,49.5,44.6,30.03,NE,49,0.0,0.0,83,0.00,CLR,,0.17,WeatherDisplay:10.37,2013-03-23 18:40:00,
2013-03-23 13:45:00,49.8,44.5,30.03,NE,49,0.0,0.1,82,0.00,CLR,,0.17,WeatherDisplay:10.37,2013-03-23 18:45:00,
2013-03-23 13:50:00,49.9,44.3,30.02,ENE,70,3.5,3.5,81,0.00,CLR,,0.17,WeatherDisplay:10.37,2013-03-23 18:50:00,
2013-03-23 13:55:00,50.1,45.1,30.01,NNE,16,3.5,3.5,83,0.00,CLR,,0.17,WeatherDisplay:10.37,2013-03-23 18:55:00,
2013-03-23 14:00:00,50.5,45.5,30.01,NNE,16,0.0,0.0,83,0.00,CLR,,0.17,WeatherDisplay:10.37,2013-03-23 19:00:00,
2013-03-23 14:05:00,50.7,44.8,30.01,East,82,0.0,0.0,80,0.00,CLR,,0.17,WeatherDisplay:10.37,2013-03-23 19:05:00,
2013-03-23 14:10:00,50.8,44.9,30.01,SE,126,3.5,3.5,80,0.00,CLR,,0.17,WeatherDisplay:10.37,2013-03-23 19:10:00,
2013-03-23 14:15:00,51.1,46.1,30.00,NE,36,3.5,3.5,83,0.00,CLR,,0.17,WeatherDisplay:10.37,2013-03-23 19:15:00,
2013-03-23 14:20:00,52.2,46.5,30.00,NNW,336,5.0,5.0,81,0.00,CLR,,0.17,WeatherDisplay:10.37,2013-03-23 19:20:00,
2013-03-23 14:25:00,52.6,46.3,30.00,NNE,16,0.0,0.0,79,0.00,CLR,,0.17,WeatherDisplay:10.37,2013-03-23 19:25:00,
2013-03-23 14:30:00,52.8,45.8,30.01,NNE,16,0.0,0.0,77,0.00,CLR,,0.17,WeatherDisplay:10.37,2013-03-23 19:30:00,
2013-03-23 14:35:00,52.8,46.1,30.00,East,80,1.0,1.0,78,0.00,CLR,,0.17,WeatherDisplay:10.37,2013-03-23 19:35:00,
2013-03-23 14:40:00,52.8,45.8,30.00,East,80,0.0,0.1,77,0.00,CLR,,0.17,WeatherDisplay:10.37,2013-03-23 19:40:00,
2013-03-23 14:45:00,52.8,45.4,30.00,East,80,0.0,0.0,76,0.00,CLR,,0.17,WeatherDisplay:10.37,2013-03-23 19:45:00,
2013-03-23 14:50:00,52.8,46.1,30.00,East,80,0.0,0.0,78,0.00,CLR,,0.17,WeatherDisplay:10.37,2013-03-23 19:50:00,
2013-03-23 14:55:00,52.8,45.4,30.00,East,80,0.0,0.0,76,0.00,CLR,,0.17,WeatherDisplay:10.37,2013-03-23 19:55:00,
2013-03-23 15:00:00,52.8,45.4,30.00,East,80,1.1,0.0,76,0.00,CLR,,0.17,WeatherDisplay:10.37,2013-03-23 20:00:00,
2013-03-23 15:05:00,52.8,45.8,30.00,NE,38,3.0,3.0,77,0.00,CLR,,0.17,WeatherDisplay:10.37,2013-03-23 20:05:00,
2013-03-23 15:10:00,53.1,45.4,30.00,ESE,109,3.0,3.0,75,0.00,CLR,,0.17,WeatherDisplay:10.37,2013-03-23 20:10:00,
2013-03-23 15:15:00,53.2,46.2,29.98,NE,44,2.3,2.3,77,0.00,CLR,,0.17,WeatherDisplay:10.37,2013-03-23 20:15:00,
2013-03-23 15:21:00,53.8,46.1,29.98,NE,38,3.5,3.5,75,0.00,CLR,,0.17,WeatherDisplay:10.37,2013-03-23 20:21:00,
2013-03-23 15:26:00,53.8,45.3,29.97,NE,38,2.3,2.3,73,0.00,CLR,,0.17,WeatherDisplay:10.37,2013-03-23 20:26:00,
2013-03-23 15:31:00,53.9,45.8,29.97,NE,38,1.1,1.1,74,0.00,CLR,,0.17,WeatherDisplay:10.37,2013-03-23 20:31:00,
2013-03-23 15:36:00,54.1,45.6,29.97,NNE,21,2.3,2.3,73,0.00,CLR,,0.17,WeatherDisplay:10.37,2013-03-23 20:36:00,
2013-03-23 15:41:00,54.1,45.3,29.97,North,10,1.1,1.1,72,0.00,CLR,,0.17,WeatherDisplay:10.37,2013-03-23 20:41:00,
2013-03-23 15:46:00,53.9,44.7,29.98,ENE,59,3.5,3.5,71,0.00,CLR,,0.17,WeatherDisplay:10.37,2013-03-23 20:46:00,
2013-03-23 15:51:00,53.8,45.3,29.98,ENE,59,0.0,0.0,73,0.00,CLR,,0.17,WeatherDisplay:10.37,2013-03-23 20:51:00,
2013-03-23 15:56:00,53.6,45.2,29.98,ENE,59,0.0,0.0,73,0.00,CLR,,0.17,WeatherDisplay:10.37,2013-03-23 20:56:00,
2013-03-23 16:01:00,53.6,45.2,29.99,ENE,59,1.1,0.0,73,0.00,CLR,,0.17,WeatherDisplay:10.37,2013-03-23 21:01:00,
2013-03-23 16:06:00,53.6,44.8,29.99,ENE,59,0.0,0.0,72,0.00,CLR,,0.17,WeatherDisplay:10.37,2013-03-23 21:06:00,
2013-03-23 16:11:00,53.5,44.7,29.98,ENE,59,2.3,2.3,72,0.00,CLR,,0.17,WeatherDisplay:10.37,2013-03-23 21:11:00,
2013-03-23 16:16:00,53.5,45.1,29.98,ENE,59,1.1,0.0,73,0.00,CLR,,0.17,WeatherDisplay:10.37,2013-03-23 21:16:00,
2013-03-23 16:21:00,53.3,44.5,29.98,NNE,17,0.0,0.0,72,0.00,CLR,,0.17,WeatherDisplay:10.37,2013-03-23 21:21:00,
2013-03-23 16:26:00,53.5,45.1,29.98,NNE,17,0.0,0.0,73,0.00,CLR,,0.17,WeatherDisplay:10.37,2013-03-23 21:26:00,
2013-03-23 16:31:00,53.3,44.9,29.98,NE,40,2.0,2.0,73,0.00,CLR,,0.17,WeatherDisplay:10.37,2013-03-23 21:31:00,
2013-03-23 16:36:00,53.3,44.9,29.98,NE,40,0.0,0.0,73,0.00,CLR,,0.17,WeatherDisplay:10.37,2013-03-23 21:36:00,
2013-03-23 16:42:00,53.3,44.9,29.98,NE,40,0.0,0.0,73,0.00,CLR,,0.17,WeatherDisplay:10.37,2013-03-23 21:42:00,
2013-03-23 16:47:00,53.5,45.1,29.98,NE,40,2.3,2.3,73,0.00,CLR,,0.17,WeatherDisplay:10.37,2013-03-23 21:47:00,
2013-03-23 16:52:00,53.5,45.1,29.98,East,95,1.1,0.0,73,0.00,CLR,,0.17,WeatherDisplay:10.37,2013-03-23 21:52:00,
2013-03-23 16:58:00,53.5,44.7,29.98,East,94,0.0,0.0,72,0.00,CLR,,0.17,WeatherDisplay:10.37,2013-03-23 21:58:00,
2013-03-23 17:03:00,53.5,45.1,29.99,East,94,0.0,0.0,73,0.00,CLR,,0.17,WeatherDisplay:10.37,2013-03-23 22:03:00,
2013-03-23 17:08:00,53.3,44.5,30.00,East,94,0.0,0.0,72,0.00,CLR,,0.17,WeatherDisplay:10.37,2013-03-23 22:08:00,
2013-03-23 17:13:00,53.3,44.5,30.00,East,94,0.0,0.0,72,0.00,CLR,,0.17,WeatherDisplay:10.37,2013-03-23 22:13:00,
2013-03-23 17:18:00,53.2,44.8,30.00,East,86,0.0,0.0,73,0.01,RA,,0.18,WeatherDisplay:10.37,2013-03-23 22:18:00,
2013-03-23 17:23:00,53.1,45.0,30.00,SSW,192,0.0,0.0,74,0.01,RA,,0.18,WeatherDisplay:10.37,2013-03-23 22:23:00,
2013-03-23 17:28:00,52.9,45.5,30.00,SSW,192,0.0,0.0,76,0.01,CLR,,0.18,WeatherDisplay:10.37,2013-03-23 22:28:00,
2013-03-23 17:33:00,52.6,45.9,29.99,SSW,192,0.0,0.0,78,0.01,CLR,,0.18,WeatherDisplay:10.37,2013-03-23 22:33:00,
2013-03-23 17:38:00,52.3,46.3,29.95,SSW,194,2.3,2.3,80,0.01,CLR,,0.18,WeatherDisplay:10.37,2013-03-23 22:38:00,
2013-03-23 17:43:00,52.0,47.0,29.94,SSW,194,1.1,1.1,83,0.01,CLR,,0.18,WeatherDisplay:10.37,2013-03-23 22:43:00,
2013-03-23 17:48:00,51.7,47.0,29.94,SSW,194,0.0,0.0,84,0.01,CLR,,0.18,WeatherDisplay:10.37,2013-03-23 22:48:00,
2013-03-23 17:53:00,51.6,47.5,29.92,SSW,194,0.0,0.0,86,0.02,RA,,0.19,WeatherDisplay:10.37,2013-03-23 22:53:00,
2013-03-23 17:58:00,51.6,47.9,29.92,SSW,194,0.0,0.0,87,0.02,RA,,0.19,WeatherDisplay:10.37,2013-03-23 22:58:00,
2013-03-23 18:03:00,51.4,47.7,29.92,SSW,194,0.0,0.0,87,0.03,RA,,0.20,WeatherDisplay:10.37,2013-03-23 23:03:00,
2013-03-23 18:08:00,51.3,47.9,29.92,SSW,194,0.0,0.0,88,0.03,RA,,0.20,WeatherDisplay:10.37,2013-03-23 23:08:00,
2013-03-23 18:13:00,51.1,47.4,29.92,SSW,194,0.0,0.0,87,0.03,,,0.20,WeatherDisplay:10.37,2013-03-23 23:13:00,
2013-03-23 18:18:00,51.0,47.6,29.92,North,360,3.0,3.0,88,0.02,CLR,,0.20,WeatherDisplay:10.37,2013-03-23 23:18:00,
2013-03-23 18:23:00,50.7,47.0,29.92,North,360,0.0,0.0,87,0.02,CLR,,0.20,WeatherDisplay:10.37,2013-03-23 23:23:00,
2013-03-23 18:28:00,50.5,47.1,29.92,North,360,0.0,0.0,88,0.02,CLR,,0.20,WeatherDisplay:10.37,2013-03-23 23:28:00,
2013-03-23 18:33:00,50.5,47.1,29.94,North,360,0.0,0.0,88,0.02,CLR,,0.20,WeatherDisplay:10.37,2013-03-23 23:33:00,
2013-03-23 18:38:00,50.4,47.0,29.94,North,360,0.0,0.0,88,0.02,CLR,,0.20,WeatherDisplay:10.37,2013-03-23 23:38:00,
2013-03-23 18:43:00,50.4,47.0,29.94,North,360,0.0,0.0,88,0.02,CLR,,0.20,WeatherDisplay:10.37,2013-03-23 23:43:00,
2013-03-23 18:48:00,50.2,46.8,29.94,North,360,0.0,0.0,88,0.02,CLR,,0.20,WeatherDisplay:10.37,2013-03-23 23:48:00,
2013-03-23 18:53:00,50.2,47.1,29.94,North,360,0.0,0.0,89,0.01,CLR,,0.20,WeatherDisplay:10.37,2013-03-23 23:53:00,
2013-03-23 18:58:00,50.1,47.0,29.94,North,360,0.0,0.0,89,0.01,CLR,,0.20,WeatherDisplay:10.37,2013-03-23 23:58:00,
2013-03-23 19:03:00,49.8,46.7,29.93,North,360,0.0,0.0,89,0.01,CLR,,0.20,WeatherDisplay:10.37,2013-03-24 00:03:00,
2013-03-23 19:08:00,49.5,46.7,29.93,North,360,0.0,0.0,90,0.00,CLR,,0.20,WeatherDisplay:10.37,2013-03-24 00:08:00,
2013-03-23 19:13:00,49.2,46.4,29.93,North,360,0.0,0.0,90,0.00,CLR,,0.20,WeatherDisplay:10.37,2013-03-24 00:13:00,
2013-03-23 19:18:00,48.8,46.3,29.94,North,360,0.0,0.0,91,0.00,CLR,,0.20,WeatherDisplay:10.37,2013-03-24 00:18:00,
2013-03-23 19:23:00,48.6,46.1,29.94,North,360,0.0,0.0,91,0.00,CLR,,0.20,WeatherDisplay:10.37,2013-03-24 00:23:00,
2013-03-23 19:28:00,48.3,46.1,29.93,North,360,0.0,0.0,92,0.00,CLR,,0.20,WeatherDisplay:10.37,2013-03-24 00:28:00,
2013-03-23 19:33:00,48.3,46.1,29.92,North,360,0.0,0.0,92,0.00,CLR,,0.20,WeatherDisplay:10.37,2013-03-24 00:33:00,
2013-03-23 19:38:00,48.2,46.0,29.92,North,360,0.0,0.0,92,0.00,CLR,,0.20,WeatherDisplay:10.37,2013-03-24 00:38:00,
2013-03-23 19:43:00,48.0,45.8,29.92,North,360,0.0,0.0,92,0.00,CLR,,0.20,WeatherDisplay:10.37,2013-03-24 00:43:00,
2013-03-23 19:48:00,47.9,45.7,29.91,North,360,0.0,0.0,92,0.00,CLR,,0.20,WeatherDisplay:10.37,2013-03-24 00:48:00,
2013-03-23 19:53:00,47.7,45.5,29.91,North,360,0.0,0.0,92,0.00,CLR,,0.20,WeatherDisplay:10.37,2013-03-24 00:53:00,
2013-03-23 19:58:00,47.6,45.4,29.91,North,360,0.0,0.0,92,0.00,CLR,,0.20,WeatherDisplay:10.37,2013-03-24 00:58:00,
2013-03-23 20:03:00,47.4,45.2,29.91,North,360,0.0,0.0,92,0.00,CLR,,0.20,WeatherDisplay:10.37,2013-03-24 01:03:00,
2013-03-23 20:08:00,47.3,45.1,29.91,North,360,0.0,0.0,92,0.00,CLR,,0.20,WeatherDisplay:10.37,2013-03-24 01:08:00,
2013-03-23 20:13:00,47.3,45.1,29.89,North,360,0.0,0.0,92,0.00,CLR,,0.20,WeatherDisplay:10.37,2013-03-24 01:13:00,
2013-03-23 20:18:00,47.1,45.2,29.89,North,360,0.0,0.0,93,0.00,CLR,,0.20,WeatherDisplay:10.37,2013-03-24 01:18:00,
2013-03-23 20:23:00,47.1,45.2,29.88,North,360,0.0,0.0,93,0.00,CLR,,0.20,WeatherDisplay:10.37,2013-03-24 01:23:00,
2013-03-23 20:28:00,47.0,45.1,29.86,North,360,0.0,0.0,93,0.00,CLR,,0.20,WeatherDisplay:10.37,2013-03-24 01:28:00,
2013-03-23 20:34:00,47.0,45.1,29.87,North,360,0.0,0.0,93,0.00,CLR,,0.20,WeatherDisplay:10.37,2013-03-24 01:34:00,
2013-03-23 20:39:00,47.0,45.1,29.87,North,360,0.0,0.0,93,0.00,CLR,,0.20,WeatherDisplay:10.37,2013-03-24 01:39:00,
2013-03-23 20:44:00,47.1,45.5,29.88,North,360,0.0,0.0,94,0.00,CLR,,0.20,WeatherDisplay:10.37,2013-03-24 01:44:00,
2013-03-23 20:49:00,47.1,45.5,29.88,North,360,0.0,0.0,94,0.00,CLR,,0.20,WeatherDisplay:10.37,2013-03-24 01:49:00,
2013-03-23 20:54:00,47.1,45.5,29.88,North,360,0.0,0.0,94,0.00,CLR,,0.20,WeatherDisplay:10.37,2013-03-24 01:54:00,
2013-03-23 20:59:00,47.1,45.5,29.87,North,360,0.0,0.0,94,0.00,CLR,,0.20,WeatherDisplay:10.37,2013-03-24 01:59:00,
2013-03-23 21:04:00,47.3,45.7,29.88,North,360,0.0,0.0,94,0.00,CLR,,0.20,WeatherDisplay:10.37,2013-03-24 02:04:00,
2013-03-23 21:09:00,47.4,45.8,29.88,North,360,0.0,0.0,94,0.00,CLR,,0.20,WeatherDisplay:10.37,2013-03-24 02:09:00,
2013-03-23 21:14:00,47.6,46.0,29.88,North,360,0.0,0.0,94,0.00,CLR,,0.20,WeatherDisplay:10.37,2013-03-24 02:14:00,
2013-03-23 21:19:00,47.7,45.8,29.89,North,360,0.0,0.0,93,0.00,CLR,,0.20,WeatherDisplay:10.37,2013-03-24 02:19:00,
2013-03-23 21:24:00,47.9,46.0,29.90,North,360,0.0,0.0,93,0.00,CLR,,0.20,WeatherDisplay:10.37,2013-03-24 02:24:00,
2013-03-23 21:29:00,48.0,46.1,29.89,North,360,0.0,0.0,93,0.00,CLR,,0.20,WeatherDisplay:10.37,2013-03-24 02:29:00,
2013-03-23 21:34:00,48.2,46.3,29.89,North,360,0.0,0.0,93,0.00,CLR,,0.20,WeatherDisplay:10.37,2013-03-24 02:34:00,
2013-03-23 21:39:00,48.3,46.1,29.88,North,360,0.0,0.0,92,0.00,CLR,,0.20,WeatherDisplay:10.37,2013-03-24 02:39:00,
2013-03-23 21:44:00,48.5,46.0,29.89,North,360,0.0,0.0,91,0.00,CLR,,0.20,WeatherDisplay:10.37,2013-03-24 02:44:00,
2013-03-23 21:49:00,48.8,45.7,29.89,North,360,0.0,0.0,89,0.00,CLR,,0.20,WeatherDisplay:10.37,2013-03-24 02:49:00,
2013-03-23 21:54:00,49.1,45.7,29.88,North,360,0.0,0.0,88,0.00,CLR,,0.20,WeatherDisplay:10.37,2013-03-24 02:54:00,
2013-03-23 21:59:00,49.4,46.0,29.88,North,360,0.0,0.0,88,0.00,CLR,,0.20,WeatherDisplay:10.37,2013-03-24 02:59:00,
2013-03-23 22:04:00,49.4,46.0,29.87,North,360,0.0,0.0,88,0.00,CLR,,0.20,WeatherDisplay:10.37,2013-03-24 03:04:00,
2013-03-23 22:09:00,49.5,46.1,29.86,North,360,0.0,0.0,88,0.00,CLR,,0.20,WeatherDisplay:10.37,2013-03-24 03:09:00,
2013-03-23 22:14:00,49.4,46.0,29.86,North,360,0.0,0.0,88,0.00,CLR,,0.20,WeatherDisplay:10.37,2013-03-24 03:14:00,
2013-03-23 22:19:00,49.4,46.0,29.87,North,360,0.0,0.0,88,0.00,CLR,,0.20,WeatherDisplay:10.37,2013-03-24 03:19:00,
2013-03-23 22:24:00,49.4,46.3,29.88,North,360,0.0,0.0,89,0.01,RA,,0.21,WeatherDisplay:10.37,2013-03-24 03:24:00,
2013-03-23 22:29:00,49.5,46.4,29.92,North,360,0.0,0.0,89,0.01,RA,,0.21,WeatherDisplay:10.37,2013-03-24 03:29:00,
2013-03-23 22:34:00,49.5,46.4,29.94,North,360,0.0,0.0,89,0.02,RA,,0.22,WeatherDisplay:10.37,2013-03-24 03:34:00,
2013-03-23 22:39:00,49.5,46.4,29.93,North,360,0.0,0.0,89,0.02,RA,,0.22,WeatherDisplay:10.37,2013-03-24 03:39:00,
2013-03-23 22:44:00,49.5,46.7,29.94,North,360,0.0,0.0,90,0.02,,,0.22,WeatherDisplay:10.37,2013-03-24 03:44:00,
2013-03-23 22:49:00,49.5,47.0,29.93,North,360,0.0,0.0,91,0.03,RA,,0.23,WeatherDisplay:10.37,2013-03-24 03:49:00,
2013-03-23 22:54:00,49.5,47.0,29.93,North,360,0.0,0.0,91,0.03,RA,,0.24,WeatherDisplay:10.37,2013-03-24 03:54:00,
2013-03-23 22:59:00,49.4,47.2,29.93,North,360,0.0,0.0,92,0.04,RA,,0.24,WeatherDisplay:10.37,2013-03-24 03:59:00,
2013-03-23 23:00:00,49.4,47.2,29.93,North,360,0.0,0.0,92,0.04,RA,,0.24,WeatherDisplay:10.37,2013-03-24 04:00:00,
2013-03-23 23:05:00,49.2,47.0,29.92,North,360,0.0,0.0,92,0.05,RA,,0.25,WeatherDisplay:10.37,2013-03-24 04:05:00,
2013-03-23 23:10:00,49.2,47.0,29.94,North,360,0.0,0.0,92,0.06,RA,,0.26,WeatherDisplay:10.37,2013-03-24 04:10:00,
2013-03-23 23:15:00,49.2,47.3,29.93,North,360,0.0,0.0,93,0.06,RA,,0.26,WeatherDisplay:10.37,2013-03-24 04:15:00,
2013-03-23 23:20:00,49.2,47.3,29.92,North,360,0.0,0.0,93,0.07,RA,,0.27,WeatherDisplay:10.37,2013-03-24 04:20:00,
2013-03-23 23:25:00,49.1,47.2,29.91,North,360,0.0,0.0,93,0.07,RA,,0.28,WeatherDisplay:10.37,2013-03-24 04:25:00,
2013-03-23 23:30:00,48.8,46.9,29.89,North,355,0.0,0.0,93,0.07,RA,,0.28,WeatherDisplay:10.37,2013-03-24 04:30:00,
2013-03-23 23:35:00,48.6,47.0,29.88,West,279,4.0,4.0,94,0.07,RA,,0.29,WeatherDisplay:10.37,2013-03-24 04:35:00,
2013-03-23 23:40:00,48.6,47.0,29.87,WNW,282,0.0,0.0,94,0.08,RA,,0.30,WeatherDisplay:10.37,2013-03-24 04:40:00,
2013-03-23 23:45:00,48.6,47.0,29.86,WNW,282,1.1,1.1,94,0.09,RA,,0.31,WeatherDisplay:10.37,2013-03-24 04:45:00,
2013-03-23 23:51:00,48.5,46.9,29.85,WNW,282,0.0,0.0,94,0.09,RA,,0.32,WeatherDisplay:10.37,2013-03-24 04:51:00,
2013-03-23 23:56:00,48.5,46.9,29.85,WNW,282,0.0,0.0,94,0.09,RA,,0.33,WeatherDisplay:10.37,2013-03-24 04:56:00,